sensor_id;sensor_type;location;lat;lon;timestamp;temperature;humidity
10304;DHT22;5197;48.152;8.590;2022-07-23T00:00:18;21.40;13.40
10304;DHT22;5197;48.152;8.590;2022-07-23T00:02:46;21.30;13.60
10304;DHT22;5197;48.152;8.590;2022-07-23T00:05:13;21.30;14.00
10304;DHT22;5197;48.152;8.590;2022-07-23T00:07:40;21.20;14.00
10304;DHT22;5197;48.152;8.590;2022-07-23T00:10:08;21.20;14.40
10304;DHT22;5197;48.152;8.590;2022-07-23T00:12:35;21.20;15.30
10304;DHT22;5197;48.152;8.590;2022-07-23T00:15:15;21.20;16.20
10304;DHT22;5197;48.152;8.590;2022-07-23T00:17:42;21.20;16.40
10304;DHT22;5197;48.152;8.590;2022-07-23T00:20:09;21.10;16.50
10304;DHT22;5197;48.152;8.590;2022-07-23T00:22:37;21.20;16.60
10304;DHT22;5197;48.152;8.590;2022-07-23T00:25:12;21.10;16.40
10304;DHT22;5197;48.152;8.590;2022-07-23T00:27:58;21.10;17.40
10304;DHT22;5197;48.152;8.590;2022-07-23T00:30:25;21.00;16.70
10304;DHT22;5197;48.152;8.590;2022-07-23T00:32:54;21.00;17.00
10304;DHT22;5197;48.152;8.590;2022-07-23T00:35:29;21.00;16.80
10304;DHT22;5197;48.152;8.590;2022-07-23T00:37:57;21.00;16.70
10304;DHT22;5197;48.152;8.590;2022-07-23T00:40:25;21.00;16.50
10304;DHT22;5197;48.152;8.590;2022-07-23T00:42:52;21.00;16.20
10304;DHT22;5197;48.152;8.590;2022-07-23T00:45:20;20.90;16.10
10304;DHT22;5197;48.152;8.590;2022-07-23T00:47:47;20.90;15.70
10304;DHT22;5197;48.152;8.590;2022-07-23T00:50:14;20.80;15.00
10304;DHT22;5197;48.152;8.590;2022-07-23T00:52:43;20.80;14.40
10304;DHT22;5197;48.152;8.590;2022-07-23T00:55:10;20.70;13.50
10304;DHT22;5197;48.152;8.590;2022-07-23T00:57:39;20.70;13.40
10304;DHT22;5197;48.152;8.590;2022-07-23T01:00:13;20.50;13.40
10304;DHT22;5197;48.152;8.590;2022-07-23T01:02:40;20.30;14.10
10304;DHT22;5197;48.152;8.590;2022-07-23T01:05:08;20.10;15.60
10304;DHT22;5197;48.152;8.590;2022-07-23T01:07:35;20.00;16.10
10304;DHT22;5197;48.152;8.590;2022-07-23T01:10:04;20.00;16.40
10304;DHT22;5197;48.152;8.590;2022-07-23T01:12:34;20.00;17.10
10304;DHT22;5197;48.152;8.590;2022-07-23T01:15:01;20.00;16.10
10304;DHT22;5197;48.152;8.590;2022-07-23T01:17:28;20.00;16.00
10304;DHT22;5197;48.152;8.590;2022-07-23T01:19:55;20.10;16.00
10304;DHT22;5197;48.152;8.590;2022-07-23T01:22:22;20.00;15.00
10304;DHT22;5197;48.152;8.590;2022-07-23T01:24:50;20.10;14.90
10304;DHT22;5197;48.152;8.590;2022-07-23T01:27:17;20.20;14.50
10304;DHT22;5197;48.152;8.590;2022-07-23T01:29:46;20.20;15.20
10304;DHT22;5197;48.152;8.590;2022-07-23T01:32:13;20.20;14.80
10304;DHT22;5197;48.152;8.590;2022-07-23T01:34:40;20.20;14.90
10304;DHT22;5197;48.152;8.590;2022-07-23T01:37:07;20.20;14.60
10304;DHT22;5197;48.152;8.590;2022-07-23T01:39:41;20.20;14.80
10304;DHT22;5197;48.152;8.590;2022-07-23T01:42:08;20.20;14.70
10304;DHT22;5197;48.152;8.590;2022-07-23T01:44:35;20.20;14.70
10304;DHT22;5197;48.152;8.590;2022-07-23T01:47:02;20.10;15.20
10304;DHT22;5197;48.152;8.590;2022-07-23T01:49:29;20.10;15.40
10304;DHT22;5197;48.152;8.590;2022-07-23T01:51:56;20.10;15.50
10304;DHT22;5197;48.152;8.590;2022-07-23T01:54:31;20.10;16.10
10304;DHT22;5197;48.152;8.590;2022-07-23T01:56:58;20.10;16.10
10304;DHT22;5197;48.152;8.590;2022-07-23T01:59:26;20.10;16.70
10304;DHT22;5197;48.152;8.590;2022-07-23T02:01:53;20.10;17.00
10304;DHT22;5197;48.152;8.590;2022-07-23T02:04:21;20.00;17.40
10304;DHT22;5197;48.152;8.590;2022-07-23T02:06:48;20.00;18.20
10304;DHT22;5197;48.152;8.590;2022-07-23T02:09:15;20.00;18.30
10304;DHT22;5197;48.152;8.590;2022-07-23T02:11:44;20.00;18.30
10304;DHT22;5197;48.152;8.590;2022-07-23T02:14:11;20.10;18.50
10304;DHT22;5197;48.152;8.590;2022-07-23T02:16:38;20.00;18.10
10304;DHT22;5197;48.152;8.590;2022-07-23T02:19:05;20.00;18.00
10304;DHT22;5197;48.152;8.590;2022-07-23T02:21:32;20.00;18.10
10304;DHT22;5197;48.152;8.590;2022-07-23T02:23:59;19.90;18.30
10304;DHT22;5197;48.152;8.590;2022-07-23T02:26:26;19.90;18.30
10304;DHT22;5197;48.152;8.590;2022-07-23T02:28:53;19.90;18.50
10304;DHT22;5197;48.152;8.590;2022-07-23T02:31:20;19.90;18.90
10304;DHT22;5197;48.152;8.590;2022-07-23T02:33:48;19.80;19.00
10304;DHT22;5197;48.152;8.590;2022-07-23T02:36:15;19.80;19.10
10304;DHT22;5197;48.152;8.590;2022-07-23T02:38:42;19.80;19.40
10304;DHT22;5197;48.152;8.590;2022-07-23T02:41:09;19.80;19.50
10304;DHT22;5197;48.152;8.590;2022-07-23T02:43:36;19.80;19.70
10304;DHT22;5197;48.152;8.590;2022-07-23T02:46:03;19.80;19.80
10304;DHT22;5197;48.152;8.590;2022-07-23T02:48:30;19.80;20.00
10304;DHT22;5197;48.152;8.590;2022-07-23T02:51:00;19.90;20.10
10304;DHT22;5197;48.152;8.590;2022-07-23T02:53:27;19.90;20.00
10304;DHT22;5197;48.152;8.590;2022-07-23T02:55:54;19.80;19.80
10304;DHT22;5197;48.152;8.590;2022-07-23T02:58:21;19.80;20.20
10304;DHT22;5197;48.152;8.590;2022-07-23T03:00:48;19.70;20.00
10304;DHT22;5197;48.152;8.590;2022-07-23T03:03:16;19.70;19.70
10304;DHT22;5197;48.152;8.590;2022-07-23T03:05:43;19.70;19.70
10304;DHT22;5197;48.152;8.590;2022-07-23T03:08:10;19.60;19.40
10304;DHT22;5197;48.152;8.590;2022-07-23T03:10:37;19.60;19.40
10304;DHT22;5197;48.152;8.590;2022-07-23T03:13:04;19.70;19.20
10304;DHT22;5197;48.152;8.590;2022-07-23T03:15:31;19.70;19.10
10304;DHT22;5197;48.152;8.590;2022-07-23T03:17:58;19.70;19.20
10304;DHT22;5197;48.152;8.590;2022-07-23T03:20:25;19.70;19.10
10304;DHT22;5197;48.152;8.590;2022-07-23T03:22:52;19.70;19.10
10304;DHT22;5197;48.152;8.590;2022-07-23T03:25:19;19.70;19.20
10304;DHT22;5197;48.152;8.590;2022-07-23T03:27:46;19.70;19.40
10304;DHT22;5197;48.152;8.590;2022-07-23T03:30:14;19.70;19.60
10304;DHT22;5197;48.152;8.590;2022-07-23T03:32:41;19.70;20.20
10304;DHT22;5197;48.152;8.590;2022-07-23T03:35:08;19.70;20.70
10304;DHT22;5197;48.152;8.590;2022-07-23T03:37:35;19.60;20.70
10304;DHT22;5197;48.152;8.590;2022-07-23T03:40:04;19.60;20.90
10304;DHT22;5197;48.152;8.590;2022-07-23T03:42:32;19.60;21.00
10304;DHT22;5197;48.152;8.590;2022-07-23T03:44:59;19.60;21.00
10304;DHT22;5197;48.152;8.590;2022-07-23T03:47:26;19.60;21.10
10304;DHT22;5197;48.152;8.590;2022-07-23T03:49:53;19.70;21.70
10304;DHT22;5197;48.152;8.590;2022-07-23T03:52:20;19.80;21.30
10304;DHT22;5197;48.152;8.590;2022-07-23T03:54:47;19.70;21.30
10304;DHT22;5197;48.152;8.590;2022-07-23T03:57:14;19.70;21.30
10304;DHT22;5197;48.152;8.590;2022-07-23T03:59:41;19.70;21.20
10304;DHT22;5197;48.152;8.590;2022-07-23T04:02:08;19.60;21.20
10304;DHT22;5197;48.152;8.590;2022-07-23T04:04:35;19.60;21.80
10304;DHT22;5197;48.152;8.590;2022-07-23T04:07:02;19.50;22.00
10304;DHT22;5197;48.152;8.590;2022-07-23T04:09:29;19.50;22.30
10304;DHT22;5197;48.152;8.590;2022-07-23T04:11:56;19.50;22.30
10304;DHT22;5197;48.152;8.590;2022-07-23T04:14:23;19.50;22.00
10304;DHT22;5197;48.152;8.590;2022-07-23T04:16:50;19.50;21.80
10304;DHT22;5197;48.152;8.590;2022-07-23T04:19:17;19.50;22.00
10304;DHT22;5197;48.152;8.590;2022-07-23T04:21:44;19.50;21.90
10304;DHT22;5197;48.152;8.590;2022-07-23T04:24:11;19.50;21.80
10304;DHT22;5197;48.152;8.590;2022-07-23T04:26:38;19.50;21.80
10304;DHT22;5197;48.152;8.590;2022-07-23T04:29:05;19.50;21.80
10304;DHT22;5197;48.152;8.590;2022-07-23T04:31:32;19.50;21.70
10304;DHT22;5197;48.152;8.590;2022-07-23T04:34:03;19.40;21.30
10304;DHT22;5197;48.152;8.590;2022-07-23T04:36:33;19.40;21.00
10304;DHT22;5197;48.152;8.590;2022-07-23T04:39:00;19.40;20.90
10304;DHT22;5197;48.152;8.590;2022-07-23T04:41:28;19.40;20.60
10304;DHT22;5197;48.152;8.590;2022-07-23T04:43:55;19.40;20.50
10304;DHT22;5197;48.152;8.590;2022-07-23T04:46:22;19.40;20.40
10304;DHT22;5197;48.152;8.590;2022-07-23T04:48:49;19.40;20.40
10304;DHT22;5197;48.152;8.590;2022-07-23T04:51:17;19.40;20.40
10304;DHT22;5197;48.152;8.590;2022-07-23T04:53:43;19.40;20.40
10304;DHT22;5197;48.152;8.590;2022-07-23T04:56:11;19.40;20.60
10304;DHT22;5197;48.152;8.590;2022-07-23T04:58:38;19.40;20.80
10304;DHT22;5197;48.152;8.590;2022-07-23T05:01:05;19.40;20.80
10304;DHT22;5197;48.152;8.590;2022-07-23T05:03:32;19.50;20.70
10304;DHT22;5197;48.152;8.590;2022-07-23T05:06:00;19.50;20.60
10304;DHT22;5197;48.152;8.590;2022-07-23T05:08:27;19.50;20.30
10304;DHT22;5197;48.152;8.590;2022-07-23T05:10:54;19.50;20.40
10304;DHT22;5197;48.152;8.590;2022-07-23T05:13:22;19.60;20.60
10304;DHT22;5197;48.152;8.590;2022-07-23T05:15:49;19.60;20.50
10304;DHT22;5197;48.152;8.590;2022-07-23T05:18:16;19.60;20.60
10304;DHT22;5197;48.152;8.590;2022-07-23T05:20:43;19.60;20.60
10304;DHT22;5197;48.152;8.590;2022-07-23T05:23:10;19.70;20.70
10304;DHT22;5197;48.152;8.590;2022-07-23T05:25:37;19.70;20.60
10304;DHT22;5197;48.152;8.590;2022-07-23T05:28:04;19.70;20.60
10304;DHT22;5197;48.152;8.590;2022-07-23T05:30:31;19.60;20.50
10304;DHT22;5197;48.152;8.590;2022-07-23T05:32:58;19.70;20.30
10304;DHT22;5197;48.152;8.590;2022-07-23T05:35:25;19.70;20.10
10304;DHT22;5197;48.152;8.590;2022-07-23T05:37:52;19.80;20.00
10304;DHT22;5197;48.152;8.590;2022-07-23T05:40:19;19.80;19.80
10304;DHT22;5197;48.152;8.590;2022-07-23T05:42:46;19.90;19.30
10304;DHT22;5197;48.152;8.590;2022-07-23T05:45:13;20.00;19.40
10304;DHT22;5197;48.152;8.590;2022-07-23T05:47:45;20.00;19.00
10304;DHT22;5197;48.152;8.590;2022-07-23T05:50:13;20.10;18.80
10304;DHT22;5197;48.152;8.590;2022-07-23T05:52:41;20.20;18.70
10304;DHT22;5197;48.152;8.590;2022-07-23T05:55:09;20.30;18.30
10304;DHT22;5197;48.152;8.590;2022-07-23T05:57:36;20.40;18.20
10304;DHT22;5197;48.152;8.590;2022-07-23T06:00:05;20.50;18.10
10304;DHT22;5197;48.152;8.590;2022-07-23T06:02:32;20.60;18.20
10304;DHT22;5197;48.152;8.590;2022-07-23T06:04:59;20.80;18.30
10304;DHT22;5197;48.152;8.590;2022-07-23T06:07:26;21.00;18.00
10304;DHT22;5197;48.152;8.590;2022-07-23T06:09:54;21.20;18.00
10304;DHT22;5197;48.152;8.590;2022-07-23T06:12:21;21.50;17.10
10304;DHT22;5197;48.152;8.590;2022-07-23T06:14:48;21.70;15.20
10304;DHT22;5197;48.152;8.590;2022-07-23T06:17:16;22.10;14.40
10304;DHT22;5197;48.152;8.590;2022-07-23T06:19:43;22.30;13.20
10304;DHT22;5197;48.152;8.590;2022-07-23T06:22:10;22.70;12.00
10304;DHT22;5197;48.152;8.590;2022-07-23T06:24:38;22.90;10.00
10304;DHT22;5197;48.152;8.590;2022-07-23T06:27:05;23.10;9.40
10304;DHT22;5197;48.152;8.590;2022-07-23T06:29:32;23.30;9.10
10304;DHT22;5197;48.152;8.590;2022-07-23T06:32:00;23.60;6.70
10304;DHT22;5197;48.152;8.590;2022-07-23T06:34:27;23.80;6.80
10304;DHT22;5197;48.152;8.590;2022-07-23T06:36:54;23.90;6.90
10304;DHT22;5197;48.152;8.590;2022-07-23T06:39:21;24.10;5.00
10304;DHT22;5197;48.152;8.590;2022-07-23T06:41:48;24.10;3.90
10304;DHT22;5197;48.152;8.590;2022-07-23T06:44:17;24.20;3.00
10304;DHT22;5197;48.152;8.590;2022-07-23T06:46:45;24.20;2.60
10304;DHT22;5197;48.152;8.590;2022-07-23T06:49:12;24.20;2.60
10304;DHT22;5197;48.152;8.590;2022-07-23T06:51:39;24.20;2.20
10304;DHT22;5197;48.152;8.590;2022-07-23T06:54:06;24.30;1.40
10304;DHT22;5197;48.152;8.590;2022-07-23T06:56:33;24.30;1.20
10304;DHT22;5197;48.152;8.590;2022-07-23T06:59:00;24.30;1.00
10304;DHT22;5197;48.152;8.590;2022-07-23T07:01:29;24.10;1.00
10304;DHT22;5197;48.152;8.590;2022-07-23T07:03:56;24.00;1.00
10304;DHT22;5197;48.152;8.590;2022-07-23T07:06:23;23.80;1.00
10304;DHT22;5197;48.152;8.590;2022-07-23T07:08:51;23.70;1.00
10304;DHT22;5197;48.152;8.590;2022-07-23T07:11:18;23.80;1.00
10304;DHT22;5197;48.152;8.590;2022-07-23T07:13:44;23.90;1.00
10304;DHT22;5197;48.152;8.590;2022-07-23T07:16:11;24.00;1.00
10304;DHT22;5197;48.152;8.590;2022-07-23T07:18:38;24.10;1.00
10304;DHT22;5197;48.152;8.590;2022-07-23T07:21:05;24.10;1.00
10304;DHT22;5197;48.152;8.590;2022-07-23T07:23:32;24.10;1.00
10304;DHT22;5197;48.152;8.590;2022-07-23T07:25:59;24.10;1.00
10304;DHT22;5197;48.152;8.590;2022-07-23T07:28:26;24.20;1.00
10304;DHT22;5197;48.152;8.590;2022-07-23T07:30:54;24.20;1.00
10304;DHT22;5197;48.152;8.590;2022-07-23T07:33:21;24.10;1.00
10304;DHT22;5197;48.152;8.590;2022-07-23T07:35:48;24.10;1.00
10304;DHT22;5197;48.152;8.590;2022-07-23T07:38:15;24.10;1.00
10304;DHT22;5197;48.152;8.590;2022-07-23T07:40:43;24.10;1.00
10304;DHT22;5197;48.152;8.590;2022-07-23T07:43:10;24.10;1.00
10304;DHT22;5197;48.152;8.590;2022-07-23T07:45:37;24.20;1.00
10304;DHT22;5197;48.152;8.590;2022-07-23T07:48:05;24.10;1.00
10304;DHT22;5197;48.152;8.590;2022-07-23T07:50:32;24.10;1.00
10304;DHT22;5197;48.152;8.590;2022-07-23T07:53:00;24.00;1.00
10304;DHT22;5197;48.152;8.590;2022-07-23T07:55:27;24.00;1.00
10304;DHT22;5197;48.152;8.590;2022-07-23T07:57:56;23.90;1.00
10304;DHT22;5197;48.152;8.590;2022-07-23T08:00:23;23.90;1.00
10304;DHT22;5197;48.152;8.590;2022-07-23T08:02:52;23.80;1.00
10304;DHT22;5197;48.152;8.590;2022-07-23T08:05:21;23.80;1.00
10304;DHT22;5197;48.152;8.590;2022-07-23T08:07:54;23.70;1.00
10304;DHT22;5197;48.152;8.590;2022-07-23T08:10:22;23.70;1.00
10304;DHT22;5197;48.152;8.590;2022-07-23T08:12:51;23.60;1.00
10304;DHT22;5197;48.152;8.590;2022-07-23T08:15:21;23.60;1.10
10304;DHT22;5197;48.152;8.590;2022-07-23T08:17:48;23.60;1.50
10304;DHT22;5197;48.152;8.590;2022-07-23T08:20:18;23.60;1.60
10304;DHT22;5197;48.152;8.590;2022-07-23T08:22:58;23.70;1.80
10304;DHT22;5197;48.152;8.590;2022-07-23T08:25:33;23.70;1.80
10304;DHT22;5197;48.152;8.590;2022-07-23T08:28:02;23.60;2.10
10304;DHT22;5197;48.152;8.590;2022-07-23T08:30:30;23.70;2.10
10304;DHT22;5197;48.152;8.590;2022-07-23T08:33:08;23.70;1.80
10304;DHT22;5197;48.152;8.590;2022-07-23T08:35:57;23.70;1.40
10304;DHT22;5197;48.152;8.590;2022-07-23T08:38:25;23.70;1.70
10304;DHT22;5197;48.152;8.590;2022-07-23T08:40:54;23.70;1.60
10304;DHT22;5197;48.152;8.590;2022-07-23T08:43:23;23.70;1.50
10304;DHT22;5197;48.152;8.590;2022-07-23T08:45:53;23.80;1.30
10304;DHT22;5197;48.152;8.590;2022-07-23T08:48:23;23.80;1.20
10304;DHT22;5197;48.152;8.590;2022-07-23T08:50:56;23.80;1.50
10304;DHT22;5197;48.152;8.590;2022-07-23T08:53:25;23.80;1.60
10304;DHT22;5197;48.152;8.590;2022-07-23T08:55:54;23.90;2.10
10304;DHT22;5197;48.152;8.590;2022-07-23T08:58:22;23.90;1.60
10304;DHT22;5197;48.152;8.590;2022-07-23T09:00:54;24.10;1.50
10304;DHT22;5197;48.152;8.590;2022-07-23T09:03:27;24.10;1.20
10304;DHT22;5197;48.152;8.590;2022-07-23T09:05:55;24.00;1.30
10304;DHT22;5197;48.152;8.590;2022-07-23T09:08:27;24.10;1.60
10304;DHT22;5197;48.152;8.590;2022-07-23T09:11:05;24.20;2.10
10304;DHT22;5197;48.152;8.590;2022-07-23T09:18:40;24.50;1.00
10304;DHT22;5197;48.152;8.590;2022-07-23T09:21:14;24.70;1.00
10304;DHT22;5197;48.152;8.590;2022-07-23T09:23:49;24.80;1.00
10304;DHT22;5197;48.152;8.590;2022-07-23T09:26:38;25.00;1.00
10304;DHT22;5197;48.152;8.590;2022-07-23T09:29:11;25.00;1.00
10304;DHT22;5197;48.152;8.590;2022-07-23T09:31:51;25.00;1.00
10304;DHT22;5197;48.152;8.590;2022-07-23T09:39:33;25.40;1.00
10304;DHT22;5197;48.152;8.590;2022-07-23T09:42:33;25.50;1.00
10304;DHT22;5197;48.152;8.590;2022-07-23T09:45:01;25.60;1.00
10304;DHT22;5197;48.152;8.590;2022-07-23T09:47:30;25.70;1.00
10304;DHT22;5197;48.152;8.590;2022-07-23T09:50:08;25.90;1.00
10304;DHT22;5197;48.152;8.590;2022-07-23T09:52:44;26.00;1.00
10304;DHT22;5197;48.152;8.590;2022-07-23T09:55:11;26.10;1.00
10304;DHT22;5197;48.152;8.590;2022-07-23T09:57:41;26.10;1.00
10304;DHT22;5197;48.152;8.590;2022-07-23T10:00:09;26.20;1.00
10304;DHT22;5197;48.152;8.590;2022-07-23T10:02:39;26.40;1.00
10304;DHT22;5197;48.152;8.590;2022-07-23T10:05:07;26.50;1.00
10304;DHT22;5197;48.152;8.590;2022-07-23T10:07:37;26.50;1.00
10304;DHT22;5197;48.152;8.590;2022-07-23T10:10:05;26.60;1.00
10304;DHT22;5197;48.152;8.590;2022-07-23T10:12:33;26.60;1.00
10304;DHT22;5197;48.152;8.590;2022-07-23T10:15:18;26.60;1.00
10304;DHT22;5197;48.152;8.590;2022-07-23T10:17:45;26.70;1.00
10304;DHT22;5197;48.152;8.590;2022-07-23T10:20:12;26.70;1.00
10304;DHT22;5197;48.152;8.590;2022-07-23T10:22:50;26.60;1.00
10304;DHT22;5197;48.152;8.590;2022-07-23T10:40:23;26.00;1.00
10304;DHT22;5197;48.152;8.590;2022-07-23T10:42:51;26.10;1.00
10304;DHT22;5197;48.152;8.590;2022-07-23T10:45:34;25.80;1.00
10304;DHT22;5197;48.152;8.590;2022-07-23T10:48:17;25.60;1.00
10304;DHT22;5197;48.152;8.590;2022-07-23T10:51:05;25.50;1.00
10304;DHT22;5197;48.152;8.590;2022-07-23T10:59:23;25.70;1.00
10304;DHT22;5197;48.152;8.590;2022-07-23T11:01:52;25.90;1.00
10304;DHT22;5197;48.152;8.590;2022-07-23T11:04:20;26.10;1.00
10304;DHT22;5197;48.152;8.590;2022-07-23T11:07:07;26.20;1.00
10304;DHT22;5197;48.152;8.590;2022-07-23T11:09:41;26.10;1.00
10304;DHT22;5197;48.152;8.590;2022-07-23T11:17:30;26.30;1.00
10304;DHT22;5197;48.152;8.590;2022-07-23T11:22:38;26.20;1.00
10304;DHT22;5197;48.152;8.590;2022-07-23T11:25:05;26.40;1.00
10304;DHT22;5197;48.152;8.590;2022-07-23T11:27:45;26.60;1.00
10304;DHT22;5197;48.152;8.590;2022-07-23T11:33:18;26.20;1.00
10304;DHT22;5197;48.152;8.590;2022-07-23T11:35:49;26.10;1.00
10304;DHT22;5197;48.152;8.590;2022-07-23T11:38:20;26.00;1.00
10304;DHT22;5197;48.152;8.590;2022-07-23T11:40:53;26.10;1.00
10304;DHT22;5197;48.152;8.590;2022-07-23T11:43:21;26.20;1.00
10304;DHT22;5197;48.152;8.590;2022-07-23T11:45:56;24.90;1.00
10304;DHT22;5197;48.152;8.590;2022-07-23T11:48:26;26.40;1.00
10304;DHT22;5197;48.152;8.590;2022-07-23T11:50:54;26.60;1.00
10304;DHT22;5197;48.152;8.590;2022-07-23T11:53:23;26.60;1.00
10304;DHT22;5197;48.152;8.590;2022-07-23T11:55:51;26.80;1.00
10304;DHT22;5197;48.152;8.590;2022-07-23T11:58:18;26.80;1.00
10304;DHT22;5197;48.152;8.590;2022-07-23T12:00:46;26.50;1.00
10304;DHT22;5197;48.152;8.590;2022-07-23T12:03:13;26.30;1.00
10304;DHT22;5197;48.152;8.590;2022-07-23T12:05:41;26.00;1.00
10304;DHT22;5197;48.152;8.590;2022-07-23T12:08:09;25.70;1.00
10304;DHT22;5197;48.152;8.590;2022-07-23T12:10:42;25.70;1.00
10304;DHT22;5197;48.152;8.590;2022-07-23T12:13:12;25.70;1.00
10304;DHT22;5197;48.152;8.590;2022-07-23T12:15:42;25.80;1.00
10304;DHT22;5197;48.152;8.590;2022-07-23T12:18:12;25.80;1.00
10304;DHT22;5197;48.152;8.590;2022-07-23T12:20:45;25.90;1.00
10304;DHT22;5197;48.152;8.590;2022-07-23T12:23:15;26.00;1.00
10304;DHT22;5197;48.152;8.590;2022-07-23T12:25:49;26.20;1.00
10304;DHT22;5197;48.152;8.590;2022-07-23T12:28:17;26.30;1.00
10304;DHT22;5197;48.152;8.590;2022-07-23T12:30:50;26.40;1.00
10304;DHT22;5197;48.152;8.590;2022-07-23T12:33:31;26.50;1.00
10304;DHT22;5197;48.152;8.590;2022-07-23T12:36:00;26.80;1.00
10304;DHT22;5197;48.152;8.590;2022-07-23T12:38:37;26.90;1.00
10304;DHT22;5197;48.152;8.590;2022-07-23T12:41:04;27.10;1.00
10304;DHT22;5197;48.152;8.590;2022-07-23T12:43:36;27.30;1.00
10304;DHT22;5197;48.152;8.590;2022-07-23T12:46:08;27.20;1.00
10304;DHT22;5197;48.152;8.590;2022-07-23T12:51:32;27.10;1.00
10304;DHT22;5197;48.152;8.590;2022-07-23T12:54:09;26.70;1.00
10304;DHT22;5197;48.152;8.590;2022-07-23T12:56:44;26.70;1.00
10304;DHT22;5197;48.152;8.590;2022-07-23T12:59:31;26.90;1.00
10304;DHT22;5197;48.152;8.590;2022-07-23T13:01:59;27.00;1.00
10304;DHT22;5197;48.152;8.590;2022-07-23T13:04:26;27.10;1.00
10304;DHT22;5197;48.152;8.590;2022-07-23T13:06:58;27.10;1.00
10304;DHT22;5197;48.152;8.590;2022-07-23T13:09:33;27.10;1.00
10304;DHT22;5197;48.152;8.590;2022-07-23T13:12:08;27.00;1.00
10304;DHT22;5197;48.152;8.590;2022-07-23T13:14:38;26.80;1.00
10304;DHT22;5197;48.152;8.590;2022-07-23T13:17:05;26.90;1.00
10304;DHT22;5197;48.152;8.590;2022-07-23T13:19:33;27.20;1.00
10304;DHT22;5197;48.152;8.590;2022-07-23T13:22:01;27.50;1.00
10304;DHT22;5197;48.152;8.590;2022-07-23T13:24:34;27.60;1.00
10304;DHT22;5197;48.152;8.590;2022-07-23T13:27:04;27.30;1.00
10304;DHT22;5197;48.152;8.590;2022-07-23T13:29:33;27.00;1.00
10304;DHT22;5197;48.152;8.590;2022-07-23T13:32:02;26.80;1.00
10304;DHT22;5197;48.152;8.590;2022-07-23T13:34:39;26.80;1.00
10304;DHT22;5197;48.152;8.590;2022-07-23T13:37:08;26.80;1.00
10304;DHT22;5197;48.152;8.590;2022-07-23T13:39:35;26.70;1.00
10304;DHT22;5197;48.152;8.590;2022-07-23T13:42:05;26.60;1.00
10304;DHT22;5197;48.152;8.590;2022-07-23T13:44:34;26.70;1.00
10304;DHT22;5197;48.152;8.590;2022-07-23T13:47:02;26.80;1.00
10304;DHT22;5197;48.152;8.590;2022-07-23T13:49:31;27.00;1.00
10304;DHT22;5197;48.152;8.590;2022-07-23T13:51:58;27.00;1.00
10304;DHT22;5197;48.152;8.590;2022-07-23T13:54:25;27.20;1.00
10304;DHT22;5197;48.152;8.590;2022-07-23T13:56:54;27.10;1.00
10304;DHT22;5197;48.152;8.590;2022-07-23T13:59:23;27.00;1.00
10304;DHT22;5197;48.152;8.590;2022-07-23T14:01:53;27.10;1.00
10304;DHT22;5197;48.152;8.590;2022-07-23T14:04:40;27.20;1.00
10304;DHT22;5197;48.152;8.590;2022-07-23T14:07:08;27.40;1.00
10304;DHT22;5197;48.152;8.590;2022-07-23T14:09:36;27.10;1.00
10304;DHT22;5197;48.152;8.590;2022-07-23T14:12:04;26.80;1.00
10304;DHT22;5197;48.152;8.590;2022-07-23T14:14:32;26.70;1.00
10304;DHT22;5197;48.152;8.590;2022-07-23T14:17:02;26.60;1.00
10304;DHT22;5197;48.152;8.590;2022-07-23T14:19:30;26.50;1.00
10304;DHT22;5197;48.152;8.590;2022-07-23T14:21:57;26.50;1.00
10304;DHT22;5197;48.152;8.590;2022-07-23T14:24:25;26.40;1.00
10304;DHT22;5197;48.152;8.590;2022-07-23T14:27:00;26.30;1.00
10304;DHT22;5197;48.152;8.590;2022-07-23T14:29:28;26.50;1.00
10304;DHT22;5197;48.152;8.590;2022-07-23T14:31:57;26.60;1.00
10304;DHT22;5197;48.152;8.590;2022-07-23T14:34:26;26.50;1.00
10304;DHT22;5197;48.152;8.590;2022-07-23T14:36:54;26.60;1.00
10304;DHT22;5197;48.152;8.590;2022-07-23T14:39:22;26.70;1.00
10304;DHT22;5197;48.152;8.590;2022-07-23T14:41:50;26.90;1.00
10304;DHT22;5197;48.152;8.590;2022-07-23T14:44:17;27.10;1.00
10304;DHT22;5197;48.152;8.590;2022-07-23T14:46:45;27.30;1.00
10304;DHT22;5197;48.152;8.590;2022-07-23T14:49:12;27.10;1.00
10304;DHT22;5197;48.152;8.590;2022-07-23T14:51:40;26.80;1.00
10304;DHT22;5197;48.152;8.590;2022-07-23T14:54:09;26.50;1.00
10304;DHT22;5197;48.152;8.590;2022-07-23T14:56:36;26.50;1.00
10304;DHT22;5197;48.152;8.590;2022-07-23T14:59:04;26.60;1.00
10304;DHT22;5197;48.152;8.590;2022-07-23T15:01:32;26.80;1.00
10304;DHT22;5197;48.152;8.590;2022-07-23T15:04:01;27.10;1.00
10304;DHT22;5197;48.152;8.590;2022-07-23T15:06:48;27.10;1.00
10304;DHT22;5197;48.152;8.590;2022-07-23T15:09:15;27.30;1.00
10304;DHT22;5197;48.152;8.590;2022-07-23T15:11:43;27.50;1.00
10304;DHT22;5197;48.152;8.590;2022-07-23T15:14:10;27.60;1.00
10304;DHT22;5197;48.152;8.590;2022-07-23T15:16:43;27.80;1.00
10304;DHT22;5197;48.152;8.590;2022-07-23T15:19:10;28.10;1.00
10304;DHT22;5197;48.152;8.590;2022-07-23T15:21:38;28.10;1.00
10304;DHT22;5197;48.152;8.590;2022-07-23T15:24:05;28.10;1.00
10304;DHT22;5197;48.152;8.590;2022-07-23T15:26:32;28.30;1.00
10304;DHT22;5197;48.152;8.590;2022-07-23T15:29:01;28.10;1.00
10304;DHT22;5197;48.152;8.590;2022-07-23T15:31:30;27.90;1.00
10304;DHT22;5197;48.152;8.590;2022-07-23T15:33:57;27.70;1.00
10304;DHT22;5197;48.152;8.590;2022-07-23T15:36:26;27.80;1.00
10304;DHT22;5197;48.152;8.590;2022-07-23T15:38:53;27.90;1.00
10304;DHT22;5197;48.152;8.590;2022-07-23T15:41:20;27.80;1.00
10304;DHT22;5197;48.152;8.590;2022-07-23T15:43:49;27.80;1.00
10304;DHT22;5197;48.152;8.590;2022-07-23T15:46:17;28.00;1.00
10304;DHT22;5197;48.152;8.590;2022-07-23T15:48:53;28.00;1.00
10304;DHT22;5197;48.152;8.590;2022-07-23T15:51:21;27.60;1.00
10304;DHT22;5197;48.152;8.590;2022-07-23T15:53:48;27.50;1.00
10304;DHT22;5197;48.152;8.590;2022-07-23T15:56:15;27.60;1.00
10304;DHT22;5197;48.152;8.590;2022-07-23T15:58:44;27.80;1.00
10304;DHT22;5197;48.152;8.590;2022-07-23T16:01:11;27.80;1.00
10304;DHT22;5197;48.152;8.590;2022-07-23T16:03:40;27.80;1.00
10304;DHT22;5197;48.152;8.590;2022-07-23T16:06:09;27.50;1.00
10304;DHT22;5197;48.152;8.590;2022-07-23T16:08:44;27.20;1.00
10304;DHT22;5197;48.152;8.590;2022-07-23T16:11:11;26.90;1.00
10304;DHT22;5197;48.152;8.590;2022-07-23T16:13:40;26.80;1.00
10304;DHT22;5197;48.152;8.590;2022-07-23T16:16:08;26.60;1.00
10304;DHT22;5197;48.152;8.590;2022-07-23T16:18:36;26.60;1.00
10304;DHT22;5197;48.152;8.590;2022-07-23T16:21:04;26.50;1.00
10304;DHT22;5197;48.152;8.590;2022-07-23T16:23:40;26.50;1.00
10304;DHT22;5197;48.152;8.590;2022-07-23T16:26:07;26.60;1.00
10304;DHT22;5197;48.152;8.590;2022-07-23T16:28:35;26.50;1.00
10304;DHT22;5197;48.152;8.590;2022-07-23T16:31:02;26.60;1.00
10304;DHT22;5197;48.152;8.590;2022-07-23T16:33:29;26.60;1.00
10304;DHT22;5197;48.152;8.590;2022-07-23T16:35:57;26.50;1.00
10304;DHT22;5197;48.152;8.590;2022-07-23T16:38:24;26.50;1.00
10304;DHT22;5197;48.152;8.590;2022-07-23T16:40:52;26.40;1.00
10304;DHT22;5197;48.152;8.590;2022-07-23T16:43:19;26.40;1.00
10304;DHT22;5197;48.152;8.590;2022-07-23T16:45:46;26.30;1.00
10304;DHT22;5197;48.152;8.590;2022-07-23T16:48:14;26.30;1.00
10304;DHT22;5197;48.152;8.590;2022-07-23T16:50:41;26.40;1.00